sensor_id;sensor_type;location;lat;lon;timestamp;P1;durP1;ratioP1;P2;durP2;ratioP2
20832;SDS011;56075;51.264;7.150;2023-10-31T00:01:07;4.30;;;2.90;;
20832;SDS011;56075;51.264;7.150;2023-10-31T00:03:39;3.75;;;2.30;;
20832;SDS011;56075;51.264;7.150;2023-10-31T00:06:10;3.72;;;2.60;;
20832;SDS011;56075;51.264;7.150;2023-10-31T00:08:42;3.33;;;1.80;;
20832;SDS011;56075;51.264;7.150;2023-10-31T00:11:13;2.55;;;1.90;;
20832;SDS011;56075;51.264;7.150;2023-10-31T00:13:44;3.58;;;2.80;;
20832;SDS011;56075;51.264;7.150;2023-10-31T00:16:15;2.40;;;2.20;;
20832;SDS011;56075;51.264;7.150;2023-10-31T00:18:47;3.40;;;2.03;;
20832;SDS011;56075;51.264;7.150;2023-10-31T00:21:18;4.32;;;2.25;;
20832;SDS011;56075;51.264;7.150;2023-10-31T00:23:50;2.50;;;2.00;;
20832;SDS011;56075;51.264;7.150;2023-10-31T00:26:21;2.10;;;1.70;;
20832;SDS011;56075;51.264;7.150;2023-10-31T00:28:57;1.65;;;1.42;;
20832;SDS011;56075;51.264;7.150;2023-10-31T00:31:29;4.93;;;1.50;;
20832;SDS011;56075;51.264;7.150;2023-10-31T00:34:00;2.72;;;1.42;;
20832;SDS011;56075;51.264;7.150;2023-10-31T00:36:32;2.05;;;1.55;;
20832;SDS011;56075;51.264;7.150;2023-10-31T00:39:03;2.30;;;1.88;;
20832;SDS011;56075;51.264;7.150;2023-10-31T00:41:34;2.72;;;1.80;;
20832;SDS011;56075;51.264;7.150;2023-10-31T00:44:06;2.88;;;2.10;;
20832;SDS011;56075;51.264;7.150;2023-10-31T00:46:38;2.30;;;2.00;;
20832;SDS011;56075;51.264;7.150;2023-10-31T00:49:09;1.98;;;1.75;;
20832;SDS011;56075;51.264;7.150;2023-10-31T00:51:40;2.83;;;2.10;;
20832;SDS011;56075;51.264;7.150;2023-10-31T00:54:11;2.05;;;1.83;;
20832;SDS011;56075;51.264;7.150;2023-10-31T00:56:42;4.10;;;2.30;;
20832;SDS011;56075;51.264;7.150;2023-10-31T00:59:13;2.17;;;1.75;;
20832;SDS011;56075;51.264;7.150;2023-10-31T01:01:45;2.30;;;1.90;;
20832;SDS011;56075;51.264;7.150;2023-10-31T01:04:16;3.25;;;2.17;;
20832;SDS011;56075;51.264;7.150;2023-10-31T01:06:47;2.67;;;2.10;;
20832;SDS011;56075;51.264;7.150;2023-10-31T01:09:18;3.33;;;2.30;;
20832;SDS011;56075;51.264;7.150;2023-10-31T01:11:49;2.97;;;2.20;;
20832;SDS011;56075;51.264;7.150;2023-10-31T01:14:21;4.97;;;2.05;;
20832;SDS011;56075;51.264;7.150;2023-10-31T01:16:52;2.97;;;2.20;;
20832;SDS011;56075;51.264;7.150;2023-10-31T01:19:23;2.50;;;1.98;;
20832;SDS011;56075;51.264;7.150;2023-10-31T01:21:54;3.15;;;2.00;;
20832;SDS011;56075;51.264;7.150;2023-10-31T01:24:26;4.63;;;1.85;;
20832;SDS011;56075;51.264;7.150;2023-10-31T01:26:57;5.43;;;1.63;;
20832;SDS011;56075;51.264;7.150;2023-10-31T01:29:28;8.70;;;1.70;;
20832;SDS011;56075;51.264;7.150;2023-10-31T01:31:59;2.13;;;1.40;;
20832;SDS011;56075;51.264;7.150;2023-10-31T01:34:30;2.42;;;1.30;;
20832;SDS011;56075;51.264;7.150;2023-10-31T01:37:02;2.00;;;1.40;;
20832;SDS011;56075;51.264;7.150;2023-10-31T01:39:33;2.22;;;1.20;;
20832;SDS011;56075;51.264;7.150;2023-10-31T01:42:07;2.38;;;1.35;;
20832;SDS011;56075;51.264;7.150;2023-10-31T01:44:38;3.67;;;1.60;;
20832;SDS011;56075;51.264;7.150;2023-10-31T01:47:09;1.80;;;1.33;;
20832;SDS011;56075;51.264;7.150;2023-10-31T01:49:41;5.07;;;1.70;;
20832;SDS011;56075;51.264;7.150;2023-10-31T01:52:12;5.70;;;1.80;;
20832;SDS011;56075;51.264;7.150;2023-10-31T01:54:43;3.42;;;1.80;;
20832;SDS011;56075;51.264;7.150;2023-10-31T01:57:15;3.30;;;2.00;;
20832;SDS011;56075;51.264;7.150;2023-10-31T01:59:47;6.40;;;2.00;;
20832;SDS011;56075;51.264;7.150;2023-10-31T02:02:19;6.05;;;2.33;;
20832;SDS011;56075;51.264;7.150;2023-10-31T02:04:53;4.93;;;2.42;;
20832;SDS011;56075;51.264;7.150;2023-10-31T02:07:27;6.93;;;2.85;;
20832;SDS011;56075;51.264;7.150;2023-10-31T02:09:58;10.70;;;3.08;;
20832;SDS011;56075;51.264;7.150;2023-10-31T02:12:33;10.93;;;4.00;;
20832;SDS011;56075;51.264;7.150;2023-10-31T02:15:06;8.00;;;4.07;;
20832;SDS011;56075;51.264;7.150;2023-10-31T02:17:37;8.32;;;4.45;;
20832;SDS011;56075;51.264;7.150;2023-10-31T02:20:08;13.05;;;4.88;;
20832;SDS011;56075;51.264;7.150;2023-10-31T02:22:40;15.30;;;4.90;;
20832;SDS011;56075;51.264;7.150;2023-10-31T02:25:17;14.15;;;5.45;;
20832;SDS011;56075;51.264;7.150;2023-10-31T02:27:49;15.57;;;5.82;;
20832;SDS011;56075;51.264;7.150;2023-10-31T02:30:20;12.82;;;6.30;;
20832;SDS011;56075;51.264;7.150;2023-10-31T02:32:51;12.95;;;6.35;;
20832;SDS011;56075;51.264;7.150;2023-10-31T02:35:22;13.18;;;7.22;;
20832;SDS011;56075;51.264;7.150;2023-10-31T02:37:54;17.70;;;8.00;;
20832;SDS011;56075;51.264;7.150;2023-10-31T02:40:25;16.65;;;6.70;;
20832;SDS011;56075;51.264;7.150;2023-10-31T02:42:56;16.50;;;7.03;;
20832;SDS011;56075;51.264;7.150;2023-10-31T02:45:27;13.95;;;7.28;;
20832;SDS011;56075;51.264;7.150;2023-10-31T02:47:58;17.80;;;7.32;;
20832;SDS011;56075;51.264;7.150;2023-10-31T02:50:29;18.25;;;8.13;;
20832;SDS011;56075;51.264;7.150;2023-10-31T02:53:00;18.88;;;8.63;;
20832;SDS011;56075;51.264;7.150;2023-10-31T02:55:32;16.85;;;8.55;;
20832;SDS011;56075;51.264;7.150;2023-10-31T02:58:03;18.45;;;8.35;;
20832;SDS011;56075;51.264;7.150;2023-10-31T03:00:34;22.30;;;9.77;;
20832;SDS011;56075;51.264;7.150;2023-10-31T03:03:05;18.30;;;8.38;;
20832;SDS011;56075;51.264;7.150;2023-10-31T03:05:37;20.15;;;8.52;;
20832;SDS011;56075;51.264;7.150;2023-10-31T03:08:08;22.38;;;9.25;;
20832;SDS011;56075;51.264;7.150;2023-10-31T03:10:41;21.55;;;8.88;;
20832;SDS011;56075;51.264;7.150;2023-10-31T03:13:12;17.75;;;7.65;;
20832;SDS011;56075;51.264;7.150;2023-10-31T03:15:43;19.42;;;8.55;;
20832;SDS011;56075;51.264;7.150;2023-10-31T03:18:15;16.85;;;7.55;;
20832;SDS011;56075;51.264;7.150;2023-10-31T03:20:47;17.58;;;7.22;;
20832;SDS011;56075;51.264;7.150;2023-10-31T03:23:18;17.23;;;7.43;;
20832;SDS011;56075;51.264;7.150;2023-10-31T03:25:50;16.50;;;7.32;;
20832;SDS011;56075;51.264;7.150;2023-10-31T03:28:23;16.20;;;7.35;;
20832;SDS011;56075;51.264;7.150;2023-10-31T03:30:54;19.20;;;6.95;;
20832;SDS011;56075;51.264;7.150;2023-10-31T03:33:25;15.55;;;7.30;;
20832;SDS011;56075;51.264;7.150;2023-10-31T03:35:56;16.65;;;6.55;;
20832;SDS011;56075;51.264;7.150;2023-10-31T03:38:28;19.95;;;6.53;;
20832;SDS011;56075;51.264;7.150;2023-10-31T03:41:00;15.27;;;6.05;;
20832;SDS011;56075;51.264;7.150;2023-10-31T03:43:31;19.52;;;7.05;;
20832;SDS011;56075;51.264;7.150;2023-10-31T03:46:03;15.95;;;6.75;;
20832;SDS011;56075;51.264;7.150;2023-10-31T03:48:35;16.65;;;5.95;;
20832;SDS011;56075;51.264;7.150;2023-10-31T03:51:06;19.80;;;6.63;;
20832;SDS011;56075;51.264;7.150;2023-10-31T03:53:37;13.88;;;5.78;;
20832;SDS011;56075;51.264;7.150;2023-10-31T03:56:08;18.33;;;6.05;;
20832;SDS011;56075;51.264;7.150;2023-10-31T03:58:40;14.85;;;6.32;;
20832;SDS011;56075;51.264;7.150;2023-10-31T04:01:13;13.85;;;5.50;;
20832;SDS011;56075;51.264;7.150;2023-10-31T04:03:44;13.18;;;5.60;;
20832;SDS011;56075;51.264;7.150;2023-10-31T04:06:15;16.27;;;6.68;;
20832;SDS011;56075;51.264;7.150;2023-10-31T04:08:48;14.45;;;5.68;;
20832;SDS011;56075;51.264;7.150;2023-10-31T04:11:19;12.93;;;4.60;;
20832;SDS011;56075;51.264;7.150;2023-10-31T04:13:52;12.20;;;5.55;;
20832;SDS011;56075;51.264;7.150;2023-10-31T04:16:23;15.05;;;5.38;;
20832;SDS011;56075;51.264;7.150;2023-10-31T04:18:55;10.02;;;4.55;;
20832;SDS011;56075;51.264;7.150;2023-10-31T04:21:26;10.50;;;5.07;;
20832;SDS011;56075;51.264;7.150;2023-10-31T04:23:58;12.77;;;5.20;;
20832;SDS011;56075;51.264;7.150;2023-10-31T04:26:29;10.32;;;4.63;;
20832;SDS011;56075;51.264;7.150;2023-10-31T04:29:00;12.60;;;4.45;;
20832;SDS011;56075;51.264;7.150;2023-10-31T04:31:33;10.88;;;4.70;;
20832;SDS011;56075;51.264;7.150;2023-10-31T04:34:04;13.13;;;4.95;;
20832;SDS011;56075;51.264;7.150;2023-10-31T04:36:35;11.65;;;4.82;;
20832;SDS011;56075;51.264;7.150;2023-10-31T04:39:06;14.80;;;4.97;;
20832;SDS011;56075;51.264;7.150;2023-10-31T04:41:38;12.27;;;4.80;;
20832;SDS011;56075;51.264;7.150;2023-10-31T04:44:09;12.70;;;5.03;;
20832;SDS011;56075;51.264;7.150;2023-10-31T04:46:40;12.40;;;5.00;;
20832;SDS011;56075;51.264;7.150;2023-10-31T04:49:12;11.70;;;5.40;;
20832;SDS011;56075;51.264;7.150;2023-10-31T04:51:44;12.48;;;5.38;;
20832;SDS011;56075;51.264;7.150;2023-10-31T04:54:15;12.48;;;5.05;;
20832;SDS011;56075;51.264;7.150;2023-10-31T04:56:47;10.32;;;5.50;;
20832;SDS011;56075;51.264;7.150;2023-10-31T04:59:18;10.40;;;5.75;;
20832;SDS011;56075;51.264;7.150;2023-10-31T05:01:49;12.10;;;6.07;;
20832;SDS011;56075;51.264;7.150;2023-10-31T05:04:25;10.60;;;5.78;;
20832;SDS011;56075;51.264;7.150;2023-10-31T05:06:57;11.85;;;5.90;;
20832;SDS011;56075;51.264;7.150;2023-10-31T05:09:28;12.70;;;6.28;;
20832;SDS011;56075;51.264;7.150;2023-10-31T05:11:59;13.07;;;6.38;;
20832;SDS011;56075;51.264;7.150;2023-10-31T05:14:30;17.00;;;7.40;;
20832;SDS011;56075;51.264;7.150;2023-10-31T05:17:02;13.30;;;6.05;;
20832;SDS011;56075;51.264;7.150;2023-10-31T05:19:33;12.05;;;5.65;;
20832;SDS011;56075;51.264;7.150;2023-10-31T05:22:04;15.65;;;6.10;;
20832;SDS011;56075;51.264;7.150;2023-10-31T05:24:35;13.17;;;6.30;;
20832;SDS011;56075;51.264;7.150;2023-10-31T05:27:06;13.63;;;7.05;;
20832;SDS011;56075;51.264;7.150;2023-10-31T05:29:38;14.77;;;7.35;;
20832;SDS011;56075;51.264;7.150;2023-10-31T05:32:10;17.65;;;7.40;;
20832;SDS011;56075;51.264;7.150;2023-10-31T05:34:41;15.93;;;7.40;;
20832;SDS011;56075;51.264;7.150;2023-10-31T05:37:12;15.75;;;7.50;;
20832;SDS011;56075;51.264;7.150;2023-10-31T05:39:43;16.63;;;7.30;;
20832;SDS011;56075;51.264;7.150;2023-10-31T05:42:15;16.02;;;7.72;;
20832;SDS011;56075;51.264;7.150;2023-10-31T05:44:46;15.25;;;7.75;;
20832;SDS011;56075;51.264;7.150;2023-10-31T05:47:17;17.45;;;8.35;;
20832;SDS011;56075;51.264;7.150;2023-10-31T05:49:49;14.77;;;7.53;;
20832;SDS011;56075;51.264;7.150;2023-10-31T05:52:20;18.27;;;7.32;;
20832;SDS011;56075;51.264;7.150;2023-10-31T05:54:51;16.73;;;8.55;;
20832;SDS011;56075;51.264;7.150;2023-10-31T05:57:22;15.95;;;7.85;;
20832;SDS011;56075;51.264;7.150;2023-10-31T05:59:53;16.27;;;7.60;;
20832;SDS011;56075;51.264;7.150;2023-10-31T06:02:25;16.55;;;7.50;;
20832;SDS011;56075;51.264;7.150;2023-10-31T06:04:56;15.07;;;6.78;;
20832;SDS011;56075;51.264;7.150;2023-10-31T06:07:27;18.23;;;7.55;;
20832;SDS011;56075;51.264;7.150;2023-10-31T06:09:58;17.33;;;8.55;;
20832;SDS011;56075;51.264;7.150;2023-10-31T06:12:29;15.32;;;7.88;;
20832;SDS011;56075;51.264;7.150;2023-10-31T06:15:01;16.98;;;7.68;;
20832;SDS011;56075;51.264;7.150;2023-10-31T06:17:32;15.05;;;7.18;;
20832;SDS011;56075;51.264;7.150;2023-10-31T06:20:06;18.33;;;8.15;;
20832;SDS011;56075;51.264;7.150;2023-10-31T06:22:38;15.30;;;7.18;;
20832;SDS011;56075;51.264;7.150;2023-10-31T06:25:10;16.73;;;7.60;;
20832;SDS011;56075;51.264;7.150;2023-10-31T06:27:41;16.52;;;7.63;;
20832;SDS011;56075;51.264;7.150;2023-10-31T06:30:12;17.25;;;7.20;;
20832;SDS011;56075;51.264;7.150;2023-10-31T06:32:44;14.45;;;6.78;;
20832;SDS011;56075;51.264;7.150;2023-10-31T06:35:16;13.80;;;6.93;;
20832;SDS011;56075;51.264;7.150;2023-10-31T06:37:47;16.52;;;7.53;;
20832;SDS011;56075;51.264;7.150;2023-10-31T06:40:18;15.20;;;6.93;;
20832;SDS011;56075;51.264;7.150;2023-10-31T06:42:49;15.35;;;6.78;;
20832;SDS011;56075;51.264;7.150;2023-10-31T06:45:21;13.57;;;6.82;;
20832;SDS011;56075;51.264;7.150;2023-10-31T06:47:53;17.67;;;7.30;;
20832;SDS011;56075;51.264;7.150;2023-10-31T06:50:25;15.20;;;6.53;;
20832;SDS011;56075;51.264;7.150;2023-10-31T06:52:56;14.48;;;7.03;;
20832;SDS011;56075;51.264;7.150;2023-10-31T06:55:28;13.05;;;6.43;;
20832;SDS011;56075;51.264;7.150;2023-10-31T06:57:59;16.92;;;7.45;;
20832;SDS011;56075;51.264;7.150;2023-10-31T07:00:30;19.73;;;7.38;;
20832;SDS011;56075;51.264;7.150;2023-10-31T07:03:01;20.48;;;8.02;;
20832;SDS011;56075;51.264;7.150;2023-10-31T07:05:37;20.55;;;8.68;;
20832;SDS011;56075;51.264;7.150;2023-10-31T07:08:08;21.38;;;8.63;;
20832;SDS011;56075;51.264;7.150;2023-10-31T07:10:39;16.40;;;7.97;;
20832;SDS011;56075;51.264;7.150;2023-10-31T07:13:11;21.73;;;8.23;;
20832;SDS011;56075;51.264;7.150;2023-10-31T07:15:43;18.73;;;8.23;;
20832;SDS011;56075;51.264;7.150;2023-10-31T07:18:15;15.20;;;7.85;;
20832;SDS011;56075;51.264;7.150;2023-10-31T07:20:46;16.25;;;7.40;;
20832;SDS011;56075;51.264;7.150;2023-10-31T07:23:17;16.15;;;7.88;;
20832;SDS011;56075;51.264;7.150;2023-10-31T07:25:48;15.52;;;7.80;;
20832;SDS011;56075;51.264;7.150;2023-10-31T07:28:19;20.55;;;7.95;;
20832;SDS011;56075;51.264;7.150;2023-10-31T07:30:51;21.63;;;8.77;;
20832;SDS011;56075;51.264;7.150;2023-10-31T07:33:22;19.15;;;7.93;;
20832;SDS011;56075;51.264;7.150;2023-10-31T07:35:53;21.95;;;9.45;;
20832;SDS011;56075;51.264;7.150;2023-10-31T07:38:25;21.10;;;9.23;;
20832;SDS011;56075;51.264;7.150;2023-10-31T07:40:57;20.90;;;9.40;;
20832;SDS011;56075;51.264;7.150;2023-10-31T07:43:29;24.10;;;10.00;;
20832;SDS011;56075;51.264;7.150;2023-10-31T07:46:00;22.33;;;10.10;;
20832;SDS011;56075;51.264;7.150;2023-10-31T07:48:31;19.67;;;9.27;;
20832;SDS011;56075;51.264;7.150;2023-10-31T07:51:03;20.48;;;10.32;;
20832;SDS011;56075;51.264;7.150;2023-10-31T07:53:34;21.38;;;9.63;;
20832;SDS011;56075;51.264;7.150;2023-10-31T07:56:08;20.90;;;9.80;;
20832;SDS011;56075;51.264;7.150;2023-10-31T07:58:49;21.40;;;9.50;;
20832;SDS011;56075;51.264;7.150;2023-10-31T08:01:20;23.65;;;10.68;;
20832;SDS011;56075;51.264;7.150;2023-10-31T08:03:52;20.92;;;10.18;;
20832;SDS011;56075;51.264;7.150;2023-10-31T08:06:24;20.90;;;9.57;;
20832;SDS011;56075;51.264;7.150;2023-10-31T08:08:55;20.83;;;9.27;;
20832;SDS011;56075;51.264;7.150;2023-10-31T08:11:26;20.33;;;9.45;;
20832;SDS011;56075;51.264;7.150;2023-10-31T08:13:58;19.45;;;9.30;;
20832;SDS011;56075;51.264;7.150;2023-10-31T08:16:29;18.63;;;8.85;;
20832;SDS011;56075;51.264;7.150;2023-10-31T08:19:01;19.60;;;9.63;;
20832;SDS011;56075;51.264;7.150;2023-10-31T08:21:33;22.20;;;10.05;;
20832;SDS011;56075;51.264;7.150;2023-10-31T08:24:07;19.48;;;10.00;;
20832;SDS011;56075;51.264;7.150;2023-10-31T08:26:38;21.25;;;9.23;;
20832;SDS011;56075;51.264;7.150;2023-10-31T08:29:09;21.45;;;9.52;;
20832;SDS011;56075;51.264;7.150;2023-10-31T08:31:41;21.88;;;10.27;;
20832;SDS011;56075;51.264;7.150;2023-10-31T08:34:12;20.30;;;10.13;;
20832;SDS011;56075;51.264;7.150;2023-10-31T08:36:43;17.77;;;9.40;;
20832;SDS011;56075;51.264;7.150;2023-10-31T08:39:14;23.02;;;8.52;;
20832;SDS011;56075;51.264;7.150;2023-10-31T08:41:53;16.40;;;8.02;;
20832;SDS011;56075;51.264;7.150;2023-10-31T08:44:25;18.25;;;9.05;;
20832;SDS011;56075;51.264;7.150;2023-10-31T08:46:57;17.17;;;9.10;;
20832;SDS011;56075;51.264;7.150;2023-10-31T08:49:28;18.77;;;8.25;;
20832;SDS011;56075;51.264;7.150;2023-10-31T08:52:00;18.70;;;8.40;;
20832;SDS011;56075;51.264;7.150;2023-10-31T08:54:32;17.67;;;8.65;;
20832;SDS011;56075;51.264;7.150;2023-10-31T08:57:04;14.02;;;7.97;;
20832;SDS011;56075;51.264;7.150;2023-10-31T08:59:35;22.90;;;8.63;;
20832;SDS011;56075;51.264;7.150;2023-10-31T09:02:07;21.42;;;8.35;;
20832;SDS011;56075;51.264;7.150;2023-10-31T09:04:41;14.15;;;7.57;;
20832;SDS011;56075;51.264;7.150;2023-10-31T09:07:20;20.45;;;8.55;;
20832;SDS011;56075;51.264;7.150;2023-10-31T09:09:51;14.65;;;7.95;;
20832;SDS011;56075;51.264;7.150;2023-10-31T09:12:23;14.90;;;7.95;;
20832;SDS011;56075;51.264;7.150;2023-10-31T09:15:00;15.10;;;8.00;;
20832;SDS011;56075;51.264;7.150;2023-10-31T09:17:59;16.13;;;7.75;;
20832;SDS011;56075;51.264;7.150;2023-10-31T09:20:43;14.18;;;7.32;;
20832;SDS011;56075;51.264;7.150;2023-10-31T09:23:15;14.05;;;7.15;;
20832;SDS011;56075;51.264;7.150;2023-10-31T09:28:49;12.85;;;6.90;;
20832;SDS011;56075;51.264;7.150;2023-10-31T09:31:27;12.20;;;6.78;;
20832;SDS011;56075;51.264;7.150;2023-10-31T09:34:18;12.88;;;6.68;;
20832;SDS011;56075;51.264;7.150;2023-10-31T09:36:49;12.80;;;6.72;;
20832;SDS011;56075;51.264;7.150;2023-10-31T09:39:21;12.05;;;6.60;;
20832;SDS011;56075;51.264;7.150;2023-10-31T09:42:03;11.48;;;6.60;;
20832;SDS011;56075;51.264;7.150;2023-10-31T09:44:39;13.50;;;6.38;;
20832;SDS011;56075;51.264;7.150;2023-10-31T09:47:13;11.48;;;6.13;;
20832;SDS011;56075;51.264;7.150;2023-10-31T09:49:46;11.27;;;5.97;;
20832;SDS011;56075;51.264;7.150;2023-10-31T09:52:26;10.38;;;6.30;;
20832;SDS011;56075;51.264;7.150;2023-10-31T09:54:58;15.35;;;6.20;;
20832;SDS011;56075;51.264;7.150;2023-10-31T09:57:30;14.10;;;6.68;;
20832;SDS011;56075;51.264;7.150;2023-10-31T10:00:11;10.63;;;5.93;;
20832;SDS011;56075;51.264;7.150;2023-10-31T10:02:43;11.20;;;5.68;;
20832;SDS011;56075;51.264;7.150;2023-10-31T10:05:14;14.80;;;6.40;;
20832;SDS011;56075;51.264;7.150;2023-10-31T10:07:58;10.93;;;5.75;;
20832;SDS011;56075;51.264;7.150;2023-10-31T10:10:35;11.95;;;6.05;;
20832;SDS011;56075;51.264;7.150;2023-10-31T10:13:09;11.07;;;5.43;;
20832;SDS011;56075;51.264;7.150;2023-10-31T10:15:49;11.15;;;6.00;;
20832;SDS011;56075;51.264;7.150;2023-10-31T10:18:26;10.60;;;5.70;;
20832;SDS011;56075;51.264;7.150;2023-10-31T10:20:59;12.38;;;5.55;;
20832;SDS011;56075;51.264;7.150;2023-10-31T10:23:32;12.00;;;5.13;;
20832;SDS011;56075;51.264;7.150;2023-10-31T10:26:04;10.23;;;4.95;;
20832;SDS011;56075;51.264;7.150;2023-10-31T10:28:35;10.55;;;4.95;;
20832;SDS011;56075;51.264;7.150;2023-10-31T10:31:06;10.40;;;4.85;;
20832;SDS011;56075;51.264;7.150;2023-10-31T10:33:40;8.10;;;4.43;;
20832;SDS011;56075;51.264;7.150;2023-10-31T10:36:11;8.57;;;4.90;;
20832;SDS011;56075;51.264;7.150;2023-10-31T10:38:42;10.27;;;5.00;;
20832;SDS011;56075;51.264;7.150;2023-10-31T10:41:17;8.55;;;4.32;;
20832;SDS011;56075;51.264;7.150;2023-10-31T10:43:55;6.90;;;3.88;;
20832;SDS011;56075;51.264;7.150;2023-10-31T10:46:27;11.50;;;4.60;;
20832;SDS011;56075;51.264;7.150;2023-10-31T10:49:03;7.78;;;3.80;;
20832;SDS011;56075;51.264;7.150;2023-10-31T10:54:17;11.52;;;4.40;;
20832;SDS011;56075;51.264;7.150;2023-10-31T10:57:09;7.18;;;3.92;;
20832;SDS011;56075;51.264;7.150;2023-10-31T10:59:47;7.70;;;3.38;;
20832;SDS011;56075;51.264;7.150;2023-10-31T11:02:22;10.63;;;3.88;;
20832;SDS011;56075;51.264;7.150;2023-10-31T11:04:54;11.90;;;3.72;;
20832;SDS011;56075;51.264;7.150;2023-10-31T11:07:26;10.13;;;3.50;;
20832;SDS011;56075;51.264;7.150;2023-10-31T11:10:00;7.28;;;2.65;;
20832;SDS011;56075;51.264;7.150;2023-10-31T11:12:33;6.88;;;3.10;;
20832;SDS011;56075;51.264;7.150;2023-10-31T11:15:05;9.10;;;2.90;;
20832;SDS011;56075;51.264;7.150;2023-10-31T11:17:38;10.80;;;3.28;;
20832;SDS011;56075;51.264;7.150;2023-10-31T11:20:13;6.78;;;2.72;;
20832;SDS011;56075;51.264;7.150;2023-10-31T11:22:46;7.55;;;2.75;;
20832;SDS011;56075;51.264;7.150;2023-10-31T11:25:21;8.38;;;2.47;;
20832;SDS011;56075;51.264;7.150;2023-10-31T11:27:56;5.13;;;2.40;;
20832;SDS011;56075;51.264;7.150;2023-10-31T11:30:40;4.00;;;2.38;;
20832;SDS011;56075;51.264;7.150;2023-10-31T11:33:14;5.13;;;2.30;;
20832;SDS011;56075;51.264;7.150;2023-10-31T11:35:50;8.07;;;2.25;;
20832;SDS011;56075;51.264;7.150;2023-10-31T11:38:27;4.95;;;2.10;;
20832;SDS011;56075;51.264;7.150;2023-10-31T11:41:08;9.70;;;1.70;;
20832;SDS011;56075;51.264;7.150;2023-10-31T11:46:20;8.38;;;2.13;;
20832;SDS011;56075;51.264;7.150;2023-10-31T11:48:55;4.32;;;1.90;;
20832;SDS011;56075;51.264;7.150;2023-10-31T11:51:27;5.75;;;1.75;;
20832;SDS011;56075;51.264;7.150;2023-10-31T11:53:59;3.83;;;1.77;;
20832;SDS011;56075;51.264;7.150;2023-10-31T11:56:32;4.88;;;1.70;;
20832;SDS011;56075;51.264;7.150;2023-10-31T11:59:03;11.48;;;1.95;;
20832;SDS011;56075;51.264;7.150;2023-10-31T12:01:44;3.40;;;1.67;;
20832;SDS011;56075;51.264;7.150;2023-10-31T12:04:21;5.18;;;1.77;;
20832;SDS011;56075;51.264;7.150;2023-10-31T12:06:57;5.43;;;1.95;;
20832;SDS011;56075;51.264;7.150;2023-10-31T12:09:30;7.63;;;1.90;;
20832;SDS011;56075;51.264;7.150;2023-10-31T12:12:02;2.78;;;1.60;;
20832;SDS011;56075;51.264;7.150;2023-10-31T12:14:33;7.78;;;1.70;;
20832;SDS011;56075;51.264;7.150;2023-10-31T12:17:04;6.43;;;1.90;;
20832;SDS011;56075;51.264;7.150;2023-10-31T12:19:38;6.68;;;1.85;;
20832;SDS011;56075;51.264;7.150;2023-10-31T12:22:12;2.53;;;1.50;;
20832;SDS011;56075;51.264;7.150;2023-10-31T12:24:45;5.72;;;1.80;;
20832;SDS011;56075;51.264;7.150;2023-10-31T12:27:16;7.00;;;1.70;;
20832;SDS011;56075;51.264;7.150;2023-10-31T12:29:48;4.93;;;2.30;;
20832;SDS011;56075;51.264;7.150;2023-10-31T12:32:31;4.05;;;2.00;;
20832;SDS011;56075;51.264;7.150;2023-10-31T12:35:02;5.65;;;1.88;;
20832;SDS011;56075;51.264;7.150;2023-10-31T12:37:34;5.47;;;1.90;;
20832;SDS011;56075;51.264;7.150;2023-10-31T12:40:06;8.30;;;2.28;;
20832;SDS011;56075;51.264;7.150;2023-10-31T12:42:39;4.32;;;2.03;;
20832;SDS011;56075;51.264;7.150;2023-10-31T12:45:13;3.72;;;1.63;;
20832;SDS011;56075;51.264;7.150;2023-10-31T12:47:57;5.55;;;1.85;;
20832;SDS011;56075;51.264;7.150;2023-10-31T12:50:32;5.57;;;2.10;;
20832;SDS011;56075;51.264;7.150;2023-10-31T12:53:04;5.25;;;1.65;;
20832;SDS011;56075;51.264;7.150;2023-10-31T12:55:41;4.40;;;1.55;;
20832;SDS011;56075;51.264;7.150;2023-10-31T12:58:19;3.63;;;1.33;;
20832;SDS011;56075;51.264;7.150;2023-10-31T13:00:51;2.90;;;1.50;;
20832;SDS011;56075;51.264;7.150;2023-10-31T13:03:24;3.25;;;1.38;;
20832;SDS011;56075;51.264;7.150;2023-10-31T13:05:55;6.63;;;1.30;;
20832;SDS011;56075;51.264;7.150;2023-10-31T13:08:26;4.32;;;1.50;;
20832;SDS011;56075;51.264;7.150;2023-10-31T13:10:57;3.20;;;1.40;;
20832;SDS011;56075;51.264;7.150;2023-10-31T13:13:29;2.90;;;1.30;;
20832;SDS011;56075;51.264;7.150;2023-10-31T13:16:01;4.90;;;1.20;;
20832;SDS011;56075;51.264;7.150;2023-10-31T13:18:33;5.40;;;1.40;;
20832;SDS011;56075;51.264;7.150;2023-10-31T13:21:05;4.68;;;1.30;;
20832;SDS011;56075;51.264;7.150;2023-10-31T13:23:36;4.78;;;1.30;;
20832;SDS011;56075;51.264;7.150;2023-10-31T13:26:09;2.17;;;1.33;;
20832;SDS011;56075;51.264;7.150;2023-10-31T13:28:41;2.33;;;1.30;;
20832;SDS011;56075;51.264;7.150;2023-10-31T13:31:12;4.80;;;1.35;;
20832;SDS011;56075;51.264;7.150;2023-10-31T13:33:44;3.95;;;1.35;;
20832;SDS011;56075;51.264;7.150;2023-10-31T13:36:16;2.63;;;1.20;;
20832;SDS011;56075;51.264;7.150;2023-10-31T13:38:48;3.95;;;1.20;;
20832;SDS011;56075;51.264;7.150;2023-10-31T13:41:20;6.97;;;1.20;;
20832;SDS011;56075;51.264;7.150;2023-10-31T13:43:52;3.92;;;1.25;;
20832;SDS011;56075;51.264;7.150;2023-10-31T13:46:23;2.65;;;0.90;;
20832;SDS011;56075;51.264;7.150;2023-10-31T13:48:55;4.00;;;1.20;;
20832;SDS011;56075;51.264;7.150;2023-10-31T13:51:26;3.03;;;1.27;;
20832;SDS011;56075;51.264;7.150;2023-10-31T13:53:57;3.47;;;1.13;;
20832;SDS011;56075;51.264;7.150;2023-10-31T13:56:28;3.28;;;1.30;;
20832;SDS011;56075;51.264;7.150;2023-10-31T13:58:59;3.40;;;1.10;;
20832;SDS011;56075;51.264;7.150;2023-10-31T14:01:31;4.88;;;1.27;;
20832;SDS011;56075;51.264;7.150;2023-10-31T14:04:02;3.47;;;1.17;;
20832;SDS011;56075;51.264;7.150;2023-10-31T14:06:33;4.90;;;1.40;;
20832;SDS011;56075;51.264;7.150;2023-10-31T14:09:04;3.83;;;1.40;;
20832;SDS011;56075;51.264;7.150;2023-10-31T14:11:41;4.50;;;1.35;;
20832;SDS011;56075;51.264;7.150;2023-10-31T14:14:12;3.58;;;1.13;;
20832;SDS011;56075;51.264;7.150;2023-10-31T14:16:44;5.47;;;1.33;;
20832;SDS011;56075;51.264;7.150;2023-10-31T14:19:15;4.05;;;1.40;;
20832;SDS011;56075;51.264;7.150;2023-10-31T14:21:47;2.75;;;1.13;;
20832;SDS011;56075;51.264;7.150;2023-10-31T14:24:18;6.10;;;1.25;;
20832;SDS011;56075;51.264;7.150;2023-10-31T14:26:49;3.83;;;1.17;;
20832;SDS011;56075;51.264;7.150;2023-10-31T14:29:20;3.60;;;1.23;;
20832;SDS011;56075;51.264;7.150;2023-10-31T14:31:51;3.08;;;0.80;;
20832;SDS011;56075;51.264;7.150;2023-10-31T14:34:24;3.08;;;1.13;;
20832;SDS011;56075;51.264;7.150;2023-10-31T14:36:56;3.70;;;1.23;;
20832;SDS011;56075;51.264;7.150;2023-10-31T14:39:27;5.57;;;1.10;;
20832;SDS011;56075;51.264;7.150;2023-10-31T14:42:01;3.75;;;1.20;;
20832;SDS011;56075;51.264;7.150;2023-10-31T14:44:32;4.43;;;1.00;;
20832;SDS011;56075;51.264;7.150;2023-10-31T14:47:03;4.93;;;1.10;;
20832;SDS011;56075;51.264;7.150;2023-10-31T14:49:35;6.15;;;1.38;;
20832;SDS011;56075;51.264;7.150;2023-10-31T14:52:06;3.30;;;1.25;;
20832;SDS011;56075;51.264;7.150;2023-10-31T14:54:39;2.17;;;0.88;;
20832;SDS011;56075;51.264;7.150;2023-10-31T14:57:10;3.22;;;1.08;;
20832;SDS011;56075;51.264;7.150;2023-10-31T14:59:41;2.70;;;1.00;;
20832;SDS011;56075;51.264;7.150;2023-10-31T15:02:12;2.50;;;1.10;;
20832;SDS011;56075;51.264;7.150;2023-10-31T15:04:44;6.18;;;1.60;;
20832;SDS011;56075;51.264;7.150;2023-10-31T15:07:15;5.22;;;1.30;;
20832;SDS011;56075;51.264;7.150;2023-10-31T15:09:46;4.32;;;1.10;;
20832;SDS011;56075;51.264;7.150;2023-10-31T15:12:18;4.07;;;1.00;;
20832;SDS011;56075;51.264;7.150;2023-10-31T15:14:51;3.97;;;1.25;;
20832;SDS011;56075;51.264;7.150;2023-10-31T15:17:22;6.07;;;1.30;;
20832;SDS011;56075;51.264;7.150;2023-10-31T15:19:53;2.78;;;1.35;;